sensor_id;sensor_type;location;lat;lon;timestamp;pressure;altitude;pressure_sealevel;temperature;humidity
33288;BME280;19657;50.452;30.372;2024-02-16T00:00:38;140805.03;;;-6.07;100.00
33288;BME280;19657;50.452;30.372;2024-02-16T00:03:26;140806.25;;;-6.06;100.00
33288;BME280;19657;50.452;30.372;2024-02-16T00:06:13;140809.97;;;-6.05;100.00
33288;BME280;19657;50.452;30.372;2024-02-16T00:09:00;140814.66;;;-6.03;100.00
33288;BME280;19657;50.452;30.372;2024-02-16T00:11:47;140813.91;;;-6.03;100.00
33288;BME280;19657;50.452;30.372;2024-02-16T00:14:37;140808.47;;;-6.06;100.00
33288;BME280;19657;50.452;30.372;2024-02-16T00:17:23;140799.58;;;-6.09;100.00
33288;BME280;19657;50.452;30.372;2024-02-16T00:20:13;140790.92;;;-6.13;100.00
33288;BME280;19657;50.452;30.372;2024-02-16T00:23:00;140787.72;;;-6.14;100.00
33288;BME280;19657;50.452;30.372;2024-02-16T00:25:46;140788.47;;;-6.14;100.00
33288;BME280;19657;50.452;30.372;2024-02-16T00:28:34;140801.06;;;-6.08;100.00
33288;BME280;19657;50.452;30.372;2024-02-16T00:31:20;140809.47;;;-6.05;100.00
33288;BME280;19657;50.452;30.372;2024-02-16T00:34:07;140819.84;;;-6.01;100.00
33288;BME280;19657;50.452;30.372;2024-02-16T00:36:54;140827.77;;;-5.98;100.00
33288;BME280;19657;50.452;30.372;2024-02-16T00:39:41;140835.41;;;-5.95;100.00
33288;BME280;19657;50.452;30.372;2024-02-16T00:42:28;140841.55;;;-5.92;100.00
33288;BME280;19657;50.452;30.372;2024-02-16T00:45:17;140851.70;;;-5.87;100.00
33288;BME280;19657;50.452;30.372;2024-02-16T00:48:04;140857.14;;;-5.85;100.00
33288;BME280;19657;50.452;30.372;2024-02-16T00:50:52;140864.31;;;-5.82;100.00
33288;BME280;19657;50.452;30.372;2024-02-16T00:53:39;140866.53;;;-5.81;100.00
33288;BME280;19657;50.452;30.372;2024-02-16T00:56:26;140874.94;;;-5.78;100.00
33288;BME280;19657;50.452;30.372;2024-02-16T00:59:12;140877.41;;;-5.77;100.00
33288;BME280;19657;50.452;30.372;2024-02-16T01:01:59;140875.94;;;-5.77;100.00
33288;BME280;19657;50.452;30.372;2024-02-16T01:04:46;140877.17;;;-5.77;100.00
33288;BME280;19657;50.452;30.372;2024-02-16T01:07:33;140873.69;;;-5.78;100.00
33288;BME280;19657;50.452;30.372;2024-02-16T01:10:20;140861.59;;;-5.83;100.00
33288;BME280;19657;50.452;30.372;2024-02-16T01:13:06;140853.42;;;-5.86;100.00
33288;BME280;19657;50.452;30.372;2024-02-16T01:15:54;140854.41;;;-5.86;100.00
33288;BME280;19657;50.452;30.372;2024-02-16T01:18:41;140853.91;;;-5.86;100.00
33288;BME280;19657;50.452;30.372;2024-02-16T01:21:28;140846.50;;;-5.90;100.00
33288;BME280;19657;50.452;30.372;2024-02-16T01:24:15;140840.09;;;-5.93;100.00
33288;BME280;19657;50.452;30.372;2024-02-16T01:27:01;140835.41;;;-5.95;100.00
33288;BME280;19657;50.452;30.372;2024-02-16T01:29:48;140835.66;;;-5.94;100.00
33288;BME280;19657;50.452;30.372;2024-02-16T01:32:35;140843.28;;;-5.91;100.00
33288;BME280;19657;50.452;30.372;2024-02-16T01:35:21;140847.73;;;-5.90;100.00
33288;BME280;19657;50.452;30.372;2024-02-16T01:38:25;140860.59;;;-5.84;100.00
33288;BME280;19657;50.452;30.372;2024-02-16T01:41:12;140876.92;;;-5.77;100.00
33288;BME280;19657;50.452;30.372;2024-02-16T01:44:02;140890.02;;;-5.72;100.00
33288;BME280;19657;50.452;30.372;2024-02-16T01:46:48;140898.92;;;-5.68;100.00
33288;BME280;19657;50.452;30.372;2024-02-16T01:49:35;140906.58;;;-5.65;100.00
33288;BME280;19657;50.452;30.372;2024-02-16T01:52:21;140911.53;;;-5.63;100.00
33288;BME280;19657;50.452;30.372;2024-02-16T01:55:08;140910.05;;;-5.63;100.00
33288;BME280;19657;50.452;30.372;2024-02-16T01:57:58;140913.03;;;-5.62;100.00
33288;BME280;19657;50.452;30.372;2024-02-16T02:00:45;140912.78;;;-5.62;100.00
33288;BME280;19657;50.452;30.372;2024-02-16T02:03:31;140905.59;;;-5.65;100.00
33288;BME280;19657;50.452;30.372;2024-02-16T02:06:18;140898.91;;;-5.68;100.00
33288;BME280;19657;50.452;30.372;2024-02-16T02:09:05;140897.44;;;-5.69;100.00
33288;BME280;19657;50.452;30.372;2024-02-16T02:11:51;140905.34;;;-5.65;100.00
33288;BME280;19657;50.452;30.372;2024-02-16T02:14:40;140921.42;;;-5.59;100.00
33288;BME280;19657;50.452;30.372;2024-02-16T02:17:27;140937.98;;;-5.52;100.00
33288;BME280;19657;50.452;30.372;2024-02-16T02:20:14;140950.11;;;-5.47;100.00
33288;BME280;19657;50.452;30.372;2024-02-16T02:23:01;140955.06;;;-5.45;100.00
33288;BME280;19657;50.452;30.372;2024-02-16T02:25:46;140952.59;;;-5.46;100.00
33288;BME280;19657;50.452;30.372;2024-02-16T02:28:35;140952.09;;;-5.46;100.00
33288;BME280;19657;50.452;30.372;2024-02-16T02:31:21;140951.84;;;-5.47;100.00
33288;BME280;19657;50.452;30.372;2024-02-16T02:34:07;140961.75;;;-5.42;100.00
33288;BME280;19657;50.452;30.372;2024-02-16T02:36:54;140977.06;;;-5.36;100.00
33288;BME280;19657;50.452;30.372;2024-02-16T02:39:40;141000.33;;;-5.26;100.00
33288;BME280;19657;50.452;30.372;2024-02-16T02:42:26;141019.63;;;-5.18;100.00
33288;BME280;19657;50.452;30.372;2024-02-16T02:45:14;141031.00;;;-5.13;100.00
33288;BME280;19657;50.452;30.372;2024-02-16T02:48:00;141042.66;;;-5.09;100.00
33288;BME280;19657;50.452;30.372;2024-02-16T02:50:46;141042.88;;;-5.09;100.00
33288;BME280;19657;50.452;30.372;2024-02-16T02:53:32;141032.25;;;-5.13;100.00
33288;BME280;19657;50.452;30.372;2024-02-16T02:56:18;141027.78;;;-5.15;100.00
33288;BME280;19657;50.452;30.372;2024-02-16T02:59:04;141027.28;;;-5.15;100.00
33288;BME280;19657;50.452;30.372;2024-02-16T03:01:52;141029.28;;;-5.14;100.00
33288;BME280;19657;50.452;30.372;2024-02-16T03:04:38;141032.47;;;-5.13;100.00
33288;BME280;19657;50.452;30.372;2024-02-16T03:07:25;141040.66;;;-5.10;100.00
33288;BME280;19657;50.452;30.372;2024-02-16T03:10:11;141041.91;;;-5.09;100.00
33288;BME280;19657;50.452;30.372;2024-02-16T03:12:57;141042.66;;;-5.09;100.00
33288;BME280;19657;50.452;30.372;2024-02-16T03:15:44;141042.91;;;-5.09;100.00
33288;BME280;19657;50.452;30.372;2024-02-16T03:18:31;141043.41;;;-5.09;100.00
33288;BME280;19657;50.452;30.372;2024-02-16T03:21:18;141050.31;;;-5.06;100.00
33288;BME280;19657;50.452;30.372;2024-02-16T03:24:04;141053.78;;;-5.04;100.00
33288;BME280;19657;50.452;30.372;2024-02-16T03:26:50;141060.44;;;-5.01;100.00
33288;BME280;19657;50.452;30.372;2024-02-16T03:29:36;141056.22;;;-5.03;100.00
33288;BME280;19657;50.452;30.372;2024-02-16T03:32:22;141046.59;;;-5.07;100.00
33288;BME280;19657;50.452;30.372;2024-02-16T03:35:08;141031.98;;;-5.13;100.00
33288;BME280;19657;50.452;30.372;2024-02-16T03:37:55;141017.91;;;-5.19;100.00
33288;BME280;19657;50.452;30.372;2024-02-16T03:40:41;141014.91;;;-5.20;100.00
33288;BME280;19657;50.452;30.372;2024-02-16T03:43:28;141007.50;;;-5.23;100.00
33288;BME280;19657;50.452;30.372;2024-02-16T03:46:15;141002.80;;;-5.25;100.00
33288;BME280;19657;50.452;30.372;2024-02-16T03:49:01;140988.45;;;-5.31;100.00
33288;BME280;19657;50.452;30.372;2024-02-16T03:51:47;140977.33;;;-5.35;100.00
33288;BME280;19657;50.452;30.372;2024-02-16T03:54:34;140974.83;;;-5.36;100.00
33288;BME280;19657;50.452;30.372;2024-02-16T03:57:20;140976.09;;;-5.36;100.00
33288;BME280;19657;50.452;30.372;2024-02-16T04:00:07;140973.34;;;-5.37;100.00
33288;BME280;19657;50.452;30.372;2024-02-16T04:02:58;140972.59;;;-5.37;100.00
33288;BME280;19657;50.452;30.372;2024-02-16T04:05:45;140967.92;;;-5.39;100.00
33288;BME280;19657;50.452;30.372;2024-02-16T04:08:31;140961.73;;;-5.42;100.00
33288;BME280;19657;50.452;30.372;2024-02-16T04:11:17;140953.31;;;-5.46;100.00
33288;BME280;19657;50.452;30.372;2024-02-16T04:14:03;140947.14;;;-5.48;100.00
33288;BME280;19657;50.452;30.372;2024-02-16T04:16:49;140938.00;;;-5.52;100.00
33288;BME280;19657;50.452;30.372;2024-02-16T04:19:36;140929.59;;;-5.55;100.00
33288;BME280;19657;50.452;30.372;2024-02-16T04:22:23;140929.09;;;-5.56;100.00
33288;BME280;19657;50.452;30.372;2024-02-16T04:25:10;140924.14;;;-5.57;100.00
33288;BME280;19657;50.452;30.372;2024-02-16T04:27:56;140924.39;;;-5.58;100.00
33288;BME280;19657;50.452;30.372;2024-02-16T04:30:42;140923.39;;;-5.58;100.00
33288;BME280;19657;50.452;30.372;2024-02-16T04:33:29;140928.09;;;-5.56;100.00
33288;BME280;19657;50.452;30.372;2024-02-16T04:36:16;140937.25;;;-5.52;100.00
33288;BME280;19657;50.452;30.372;2024-02-16T04:39:02;140942.19;;;-5.50;100.00
33288;BME280;19657;50.452;30.372;2024-02-16T04:41:49;140943.67;;;-5.50;100.00
33288;BME280;19657;50.452;30.372;2024-02-16T04:44:38;140947.64;;;-5.48;100.00
33288;BME280;19657;50.452;30.372;2024-02-16T04:47:25;140946.16;;;-5.49;100.00
33288;BME280;19657;50.452;30.372;2024-02-16T04:50:12;140941.94;;;-5.50;100.00
33288;BME280;19657;50.452;30.372;2024-02-16T04:53:00;140943.42;;;-5.50;100.00
33288;BME280;19657;50.452;30.372;2024-02-16T04:55:49;140951.09;;;-5.47;100.00
33288;BME280;19657;50.452;30.372;2024-02-16T04:58:35;140960.75;;;-5.42;100.00
33288;BME280;19657;50.452;30.372;2024-02-16T05:01:21;140966.66;;;-5.40;100.00
33288;BME280;19657;50.452;30.372;2024-02-16T05:04:07;140970.39;;;-5.38;100.00
33288;BME280;19657;50.452;30.372;2024-02-16T05:06:54;140967.91;;;-5.39;100.00
33288;BME280;19657;50.452;30.372;2024-02-16T05:09:44;140960.97;;;-5.42;100.00
33288;BME280;19657;50.452;30.372;2024-02-16T05:12:30;140954.80;;;-5.45;100.00
33288;BME280;19657;50.452;30.372;2024-02-16T05:15:17;140946.91;;;-5.48;100.00
33288;BME280;19657;50.452;30.372;2024-02-16T05:18:04;140948.14;;;-5.48;100.00
33288;BME280;19657;50.452;30.372;2024-02-16T05:20:50;140958.53;;;-5.43;100.00
33288;BME280;19657;50.452;30.372;2024-02-16T05:23:36;140965.22;;;-5.40;100.00
33288;BME280;19657;50.452;30.372;2024-02-16T05:26:22;140975.34;;;-5.36;100.00
33288;BME280;19657;50.452;30.372;2024-02-16T05:29:09;140985.22;;;-5.32;100.00
33288;BME280;19657;50.452;30.372;2024-02-16T05:31:55;140995.38;;;-5.28;100.00
33288;BME280;19657;50.452;30.372;2024-02-16T05:34:41;141014.17;;;-5.20;100.00
33288;BME280;19657;50.452;30.372;2024-02-16T05:37:28;141029.77;;;-5.14;100.00
33288;BME280;19657;50.452;30.372;2024-02-16T05:40:15;141041.41;;;-5.09;100.00
33288;BME280;19657;50.452;30.372;2024-02-16T05:43:13;141055.25;;;-5.04;100.00
33288;BME280;19657;50.452;30.372;2024-02-16T05:45:59;141061.69;;;-5.01;100.00
33288;BME280;19657;50.452;30.372;2024-02-16T05:48:45;141066.39;;;-4.98;100.00
33288;BME280;19657;50.452;30.372;2024-02-16T05:51:35;141077.03;;;-4.94;100.00
33288;BME280;19657;50.452;30.372;2024-02-16T05:54:29;141058.95;;;-5.02;100.00
33288;BME280;19657;50.452;30.372;2024-02-16T05:57:15;141002.30;;;-5.25;100.00
33288;BME280;19657;50.452;30.372;2024-02-16T06:00:07;140964.95;;;-5.41;100.00
33288;BME280;19657;50.452;30.372;2024-02-16T06:02:54;140966.17;;;-5.40;100.00
33288;BME280;19657;50.452;30.372;2024-02-16T06:05:40;140948.13;;;-5.48;100.00
33288;BME280;19657;50.452;30.372;2024-02-16T06:08:26;140960.47;;;-5.42;100.00
33288;BME280;19657;50.452;30.372;2024-02-16T06:11:15;140974.09;;;-5.37;100.00
33288;BME280;19657;50.452;30.372;2024-02-16T06:14:03;140961.97;;;-5.42;100.00
33288;BME280;19657;50.452;30.372;2024-02-16T06:16:49;140935.02;;;-5.53;100.00
33288;BME280;19657;50.452;30.372;2024-02-16T06:19:35;140896.20;;;-5.69;100.00
33288;BME280;19657;50.452;30.372;2024-02-16T06:22:22;140855.89;;;-5.86;100.00
33288;BME280;19657;50.452;30.372;2024-02-16T06:25:08;140820.34;;;-6.01;100.00
33288;BME280;19657;50.452;30.372;2024-02-16T06:27:55;140805.78;;;-6.07;100.00
33288;BME280;19657;50.452;30.372;2024-02-16T06:30:41;140806.50;;;-6.06;100.00
33288;BME280;19657;50.452;30.372;2024-02-16T06:33:27;140810.95;;;-6.04;100.00
33288;BME280;19657;50.452;30.372;2024-02-16T06:36:13;140806.50;;;-6.06;100.00
33288;BME280;19657;50.452;30.372;2024-02-16T06:39:00;140827.25;;;-5.98;100.00
33288;BME280;19657;50.452;30.372;2024-02-16T06:41:46;140858.14;;;-5.85;100.00
33288;BME280;19657;50.452;30.372;2024-02-16T06:44:32;140873.22;;;-5.79;100.00
33288;BME280;19657;50.452;30.372;2024-02-16T06:47:19;140867.03;;;-5.81;100.00
33288;BME280;19657;50.452;30.372;2024-02-16T06:50:07;140866.78;;;-5.81;100.00
33288;BME280;19657;50.452;30.372;2024-02-16T06:52:53;140873.20;;;-5.79;100.00
33288;BME280;19657;50.452;30.372;2024-02-16T06:55:41;140890.27;;;-5.72;100.00
33288;BME280;19657;50.452;30.372;2024-02-16T06:58:27;140905.84;;;-5.65;100.00
33288;BME280;19657;50.452;30.372;2024-02-16T07:01:14;140906.09;;;-5.65;100.00
33288;BME280;19657;50.452;30.372;2024-02-16T07:04:00;140913.77;;;-5.62;100.00
33288;BME280;19657;50.452;30.372;2024-02-16T07:06:48;140919.94;;;-5.59;100.00
33288;BME280;19657;50.452;30.372;2024-02-16T07:09:35;140913.52;;;-5.62;100.00
33288;BME280;19657;50.452;30.372;2024-02-16T07:12:22;140910.30;;;-5.63;100.00
33288;BME280;19657;50.452;30.372;2024-02-16T07:15:09;140906.84;;;-5.65;100.00
33288;BME280;19657;50.452;30.372;2024-02-16T07:17:55;140916.73;;;-5.61;100.00
33288;BME280;19657;50.452;30.372;2024-02-16T07:20:41;140943.42;;;-5.50;100.00
33288;BME280;19657;50.452;30.372;2024-02-16T07:23:27;140946.88;;;-5.48;100.00
33288;BME280;19657;50.452;30.372;2024-02-16T07:26:14;140949.39;;;-5.47;100.00
33288;BME280;19657;50.452;30.372;2024-02-16T07:29:03;140942.42;;;-5.50;100.00
33288;BME280;19657;50.452;30.372;2024-02-16T07:31:49;140956.03;;;-5.44;100.00
33288;BME280;19657;50.452;30.372;2024-02-16T07:34:37;140978.05;;;-5.35;100.00
33288;BME280;19657;50.452;30.372;2024-02-16T07:37:24;140991.17;;;-5.30;100.00
33288;BME280;19657;50.452;30.372;2024-02-16T07:40:10;141017.66;;;-5.19;100.00
33288;BME280;19657;50.452;30.372;2024-02-16T07:42:57;141020.36;;;-5.18;100.00
33288;BME280;19657;50.452;30.372;2024-02-16T07:45:43;141013.42;;;-5.21;100.00
33288;BME280;19657;50.452;30.372;2024-02-16T07:48:30;140989.69;;;-5.31;100.00
33288;BME280;19657;50.452;30.372;2024-02-16T07:51:17;140976.83;;;-5.36;100.00
33288;BME280;19657;50.452;30.372;2024-02-16T07:54:04;140975.83;;;-5.36;100.00
33288;BME280;19657;50.452;30.372;2024-02-16T07:56:50;140971.38;;;-5.38;100.00
33288;BME280;19657;50.452;30.372;2024-02-16T07:59:37;140977.55;;;-5.36;100.00
33288;BME280;19657;50.452;30.372;2024-02-16T08:02:23;141002.78;;;-5.25;100.00
33288;BME280;19657;50.452;30.372;2024-02-16T08:05:13;141048.81;;;-5.06;100.00
33288;BME280;19657;50.452;30.372;2024-02-16T08:07:59;141056.00;;;-5.03;100.00
33288;BME280;19657;50.452;30.372;2024-02-16T08:10:46;141054.03;;;-5.04;100.00
33288;BME280;19657;50.452;30.372;2024-02-16T08:13:32;141055.98;;;-5.03;100.00
33288;BME280;19657;50.452;30.372;2024-02-16T08:16:18;141071.09;;;-4.96;100.00
33288;BME280;19657;50.452;30.372;2024-02-16T08:19:04;141069.09;;;-4.97;100.00
33288;BME280;19657;50.452;30.372;2024-02-16T08:21:50;141058.22;;;-5.02;100.00
33288;BME280;19657;50.452;30.372;2024-02-16T08:24:37;141038.42;;;-5.11;100.00
33288;BME280;19657;50.452;30.372;2024-02-16T08:27:23;141024.33;;;-5.16;100.00
33288;BME280;19657;50.452;30.372;2024-02-16T08:30:11;141021.09;;;-5.17;100.00
33288;BME280;19657;50.452;30.372;2024-02-16T08:32:57;141002.78;;;-5.25;100.00
33288;BME280;19657;50.452;30.372;2024-02-16T08:35:44;140990.42;;;-5.30;100.00
33288;BME280;19657;50.452;30.372;2024-02-16T08:38:30;140976.58;;;-5.36;100.00
33288;BME280;19657;50.452;30.372;2024-02-16T08:41:17;140952.09;;;-5.46;100.00
33288;BME280;19657;50.452;30.372;2024-02-16T08:44:04;140905.59;;;-5.65;100.00
33288;BME280;19657;50.452;30.372;2024-02-16T08:46:50;140873.70;;;-5.78;100.00
33288;BME280;19657;50.452;30.372;2024-02-16T08:49:37;140845.03;;;-5.90;100.00
33288;BME280;19657;50.452;30.372;2024-02-16T08:52:26;140822.09;;;-6.00;100.00
33288;BME280;19657;50.452;30.372;2024-02-16T08:55:12;140826.53;;;-5.98;100.00
33288;BME280;19657;50.452;30.372;2024-02-16T08:57:59;140841.09;;;-5.92;100.00
33288;BME280;19657;50.452;30.372;2024-02-16T09:00:46;140841.56;;;-5.92;100.00
33288;BME280;19657;50.452;30.372;2024-02-16T09:03:32;140839.59;;;-5.93;100.00
33288;BME280;19657;50.452;30.372;2024-02-16T09:06:23;140848.97;;;-5.89;100.00
33288;BME280;19657;50.452;30.372;2024-02-16T09:09:09;140853.45;;;-5.87;100.00
33288;BME280;19657;50.452;30.372;2024-02-16T09:11:57;140855.41;;;-5.86;100.00
33288;BME280;19657;50.452;30.372;2024-02-16T09:14:43;140865.03;;;-5.82;100.00
33288;BME280;19657;50.452;30.372;2024-02-16T09:17:29;140855.41;;;-5.86;100.00
33288;BME280;19657;50.452;30.372;2024-02-16T09:20:16;140865.30;;;-5.82;100.00
33288;BME280;19657;50.452;30.372;2024-02-16T09:23:08;140874.70;;;-5.78;100.00
33288;BME280;19657;50.452;30.372;2024-02-16T09:25:56;140876.66;;;-5.77;100.00
33288;BME280;19657;50.452;30.372;2024-02-16T09:28:42;140864.78;;;-5.82;100.00
33288;BME280;19657;50.452;30.372;2024-02-16T09:31:28;140874.17;;;-5.78;100.00
33288;BME280;19657;50.452;30.372;2024-02-16T09:34:14;140896.92;;;-5.69;100.00
33288;BME280;19657;50.452;30.372;2024-02-16T09:37:02;140915.47;;;-5.61;100.00
33288;BME280;19657;50.452;30.372;2024-02-16T09:39:49;140920.92;;;-5.59;100.00
33288;BME280;19657;50.452;30.372;2024-02-16T09:42:38;140934.78;;;-5.53;100.00
33288;BME280;19657;50.452;30.372;2024-02-16T09:45:25;140961.97;;;-5.42;100.00
33288;BME280;19657;50.452;30.372;2024-02-16T09:48:12;141011.72;;;-5.21;100.00
33288;BME280;19657;50.452;30.372;2024-02-16T09:50:59;141046.34;;;-5.07;100.00
33288;BME280;19657;50.452;30.372;2024-02-16T09:53:50;141102.25;;;-4.84;100.00
33288;BME280;19657;50.452;30.372;2024-02-16T09:56:44;141175.52;;;-4.54;100.00
33288;BME280;19657;50.452;30.372;2024-02-16T09:59:32;141215.66;;;-4.37;100.00
33288;BME280;19657;50.452;30.372;2024-02-16T10:02:19;141217.14;;;-4.37;100.00
33288;BME280;19657;50.452;30.372;2024-02-16T10:05:16;141235.69;;;-4.29;100.00
33288;BME280;19657;50.452;30.372;2024-02-16T10:08:13;141276.05;;;-4.12;100.00
33288;BME280;19657;50.452;30.372;2024-02-16T10:11:04;141332.03;;;-3.89;100.00
33288;BME280;19657;50.452;30.372;2024-02-16T10:13:58;141351.84;;;-3.81;100.00
33288;BME280;19657;50.452;30.372;2024-02-16T10:16:46;141305.77;;;-4.00;100.00
33288;BME280;19657;50.452;30.372;2024-02-16T10:19:33;141260.20;;;-4.19;100.00
33288;BME280;19657;50.452;30.372;2024-02-16T10:22:29;141257.47;;;-4.20;100.00
33288;BME280;19657;50.452;30.372;2024-02-16T10:25:15;141247.33;;;-4.24;100.00
33288;BME280;19657;50.452;30.372;2024-02-16T10:28:06;141231.47;;;-4.30;100.00
33288;BME280;19657;50.452;30.372;2024-02-16T10:31:00;141226.53;;;-4.33;100.00
33288;BME280;19657;50.452;30.372;2024-02-16T10:33:51;141231.22;;;-4.31;100.00
33288;BME280;19657;50.452;30.372;2024-02-16T10:36:39;141241.64;;;-4.26;100.00
33288;BME280;19657;50.452;30.372;2024-02-16T10:39:29;141252.03;;;-4.22;100.00
33288;BME280;19657;50.452;30.372;2024-02-16T10:42:16;141253.27;;;-4.22;100.00
33288;BME280;19657;50.452;30.372;2024-02-16T10:45:06;141243.38;;;-4.26;100.00
33288;BME280;19657;50.452;30.372;2024-02-16T10:47:53;141273.34;;;-4.13;100.00
33288;BME280;19657;50.452;30.372;2024-02-16T10:50:41;141304.78;;;-4.00;100.00
33288;BME280;19657;50.452;30.372;2024-02-16T10:53:28;141333.28;;;-3.88;100.00
33288;BME280;19657;50.452;30.372;2024-02-16T10:56:16;141354.81;;;-3.80;100.00
33288;BME280;19657;50.452;30.372;2024-02-16T10:59:03;141353.58;;;-3.80;100.00
33288;BME280;19657;50.452;30.372;2024-02-16T11:01:59;141338.95;;;-3.86;100.00
33288;BME280;19657;50.452;30.372;2024-02-16T11:04:47;141338.72;;;-3.86;100.00
33288;BME280;19657;50.452;30.372;2024-02-16T11:07:35;141319.89;;;-3.94;100.00
33288;BME280;19657;50.452;30.372;2024-02-16T11:10:22;141303.55;;;-4.01;100.00
33288;BME280;19657;50.452;30.372;2024-02-16T11:13:08;141285.72;;;-4.08;100.00
33288;BME280;19657;50.452;30.372;2024-02-16T11:16:02;141292.89;;;-4.05;100.00
33288;BME280;19657;50.452;30.372;2024-02-16T11:18:50;141332.75;;;-3.89;100.00
33288;BME280;19657;50.452;30.372;2024-02-16T11:21:37;141362.00;;;-3.77;100.00
33288;BME280;19657;50.452;30.372;2024-02-16T11:24:30;141372.41;;;-3.73;100.00
33288;BME280;19657;50.452;30.372;2024-02-16T11:27:17;141375.61;;;-3.71;100.00
33288;BME280;19657;50.452;30.372;2024-02-16T11:30:12;141365.95;;;-3.75;100.00
33288;BME280;19657;50.452;30.372;2024-02-16T11:32:58;141365.22;;;-3.76;100.00
33288;BME280;19657;50.452;30.372;2024-02-16T11:35:59;141364.97;;;-3.76;100.00
33288;BME280;19657;50.452;30.372;2024-02-16T11:38:46;141365.97;;;-3.75;100.00
33288;BME280;19657;50.452;30.372;2024-02-16T11:41:32;141374.64;;;-3.71;100.00
33288;BME280;19657;50.452;30.372;2024-02-16T11:44:19;141384.30;;;-3.67;100.00
33288;BME280;19657;50.452;30.372;2024-02-16T11:47:07;141387.25;;;-3.66;100.00
33288;BME280;19657;50.452;30.372;2024-02-16T11:50:08;141430.14;;;-3.48;100.00
33288;BME280;19657;50.452;30.372;2024-02-16T11:52:57;141479.70;;;-3.28;100.00
33288;BME280;19657;50.452;30.372;2024-02-16T11:55:48;141522.33;;;-3.10;100.00
33288;BME280;19657;50.452;30.372;2024-02-16T11:58:35;141542.91;;;-3.02;100.00
33288;BME280;19657;50.452;30.372;2024-02-16T12:01:23;141561.75;;;-2.94;100.00
33288;BME280;19657;50.452;30.372;2024-02-16T12:07:08;141499.53;;;-3.20;100.00
33288;BME280;19657;50.452;30.372;2024-02-16T12:09:59;141492.84;;;-3.23;100.00
33288;BME280;19657;50.452;30.372;2024-02-16T12:12:47;141463.34;;;-3.35;100.00
33288;BME280;19657;50.452;30.372;2024-02-16T12:15:34;141419.47;;;-3.53;100.00
33288;BME280;19657;50.452;30.372;2024-02-16T12:18:21;141365.47;;;-3.75;100.00
33288;BME280;19657;50.452;30.372;2024-02-16T12:21:07;141333.75;;;-3.88;100.00
33288;BME280;19657;50.452;30.372;2024-02-16T12:23:55;141310.72;;;-3.98;100.00
33288;BME280;19657;50.452;30.372;2024-02-16T12:26:42;141286.70;;;-4.08;100.00
33288;BME280;19657;50.452;30.372;2024-02-16T12:29:29;141271.59;;;-4.14;100.00
33288;BME280;19657;50.452;30.372;2024-02-16T12:32:15;141267.63;;;-4.16;100.00
33288;BME280;19657;50.452;30.372;2024-02-16T12:35:06;141274.81;;;-4.12;100.00
33288;BME280;19657;50.452;30.372;2024-02-16T12:37:52;141282.75;;;-4.09;100.00
33288;BME280;19657;50.452;30.372;2024-02-16T12:40:38;141267.64;;;-4.16;100.00
33288;BME280;19657;50.452;30.372;2024-02-16T12:43:25;141293.91;;;-4.05;100.00
33288;BME280;19657;50.452;30.372;2024-02-16T12:46:11;141338.47;;;-3.86;100.00
33288;BME280;19657;50.452;30.372;2024-02-16T12:48:57;141364.47;;;-3.76;100.00
33288;BME280;19657;50.452;30.372;2024-02-16T12:51:46;141376.38;;;-3.71;100.00
33288;BME280;19657;50.452;30.372;2024-02-16T12:54:32;141400.89;;;-3.60;100.00
33288;BME280;19657;50.452;30.372;2024-02-16T12:57:20;141423.92;;;-3.51;100.00
33288;BME280;19657;50.452;30.372;2024-02-16T13:00:07;141452.20;;;-3.39;100.00
33288;BME280;19657;50.452;30.372;2024-02-16T13:02:54;141475.23;;;-3.30;100.00
33288;BME280;19657;50.452;30.372;2024-02-16T13:05:40;141486.41;;;-3.25;100.00
33288;BME280;19657;50.452;30.372;2024-02-16T13:08:29;141490.13;;;-3.23;100.00
33288;BME280;19657;50.452;30.372;2024-02-16T13:11:16;141489.38;;;-3.24;100.00
33288;BME280;19657;50.452;30.372;2024-02-16T13:14:03;141469.28;;;-3.32;100.00
33288;BME280;19657;50.452;30.372;2024-02-16T13:16:49;141424.92;;;-3.51;100.00
33288;BME280;19657;50.452;30.372;2024-02-16T13:19:35;141408.33;;;-3.57;100.00
33288;BME280;19657;50.452;30.372;2024-02-16T13:33:46;141372.66;;;-3.72;100.00
33288;BME280;19657;50.452;30.372;2024-02-16T13:36:32;141381.58;;;-3.68;100.00
33288;BME280;19657;50.452;30.372;2024-02-16T13:39:18;141400.41;;;-3.60;100.00
33288;BME280;19657;50.452;30.372;2024-02-16T13:42:05;141398.91;;;-3.61;100.00
33288;BME280;19657;50.452;30.372;2024-02-16T13:45:10;141405.13;;;-3.59;100.00
33288;BME280;19657;50.452;30.372;2024-02-16T13:47:57;141385.78;;;-3.67;100.00
33288;BME280;19657;50.452;30.372;2024-02-16T13:50:46;141359.53;;;-3.78;100.00
33288;BME280;19657;50.452;30.372;2024-02-16T13:53:32;141330.30;;;-3.90;100.00
33288;BME280;19657;50.452;30.372;2024-02-16T13:56:19;141337.48;;;-3.87;100.00
33288;BME280;19657;50.452;30.372;2024-02-16T13:59:05;141360.52;;;-3.77;100.00
33288;BME280;19657;50.452;30.372;2024-02-16T14:01:54;141352.59;;;-3.81;100.00
33288;BME280;19657;50.452;30.372;2024-02-16T14:04:41;141321.38;;;-3.93;100.00
33288;BME280;19657;50.452;30.372;2024-02-16T14:07:28;141284.22;;;-4.09;100.00
33288;BME280;19657;50.452;30.372;2024-02-16T14:10:20;141284.72;;;-4.08;100.00
33288;BME280;19657;50.452;30.372;2024-02-16T14:13:07;141307.25;;;-3.99;100.00
33288;BME280;19657;50.452;30.372;2024-02-16T14:15:53;141314.45;;;-3.96;100.00
33288;BME280;19657;50.452;30.372;2024-02-16T14:18:40;141319.89;;;-3.94;100.00
33288;BME280;19657;50.452;30.372;2024-02-16T14:21:26;141339.45;;;-3.86;100.00
33288;BME280;19657;50.452;30.372;2024-02-16T14:24:16;141341.44;;;-3.85;100.00
33288;BME280;19657;50.452;30.372;2024-02-16T14:27:04;141346.16;;;-3.83;100.00